createdAt,value
2022-08-14T00:02:31.334Z,97032.94
2022-08-14T00:05:01.571Z,97031.84
2022-08-14T00:07:29.975Z,97030.53
2022-08-14T00:10:49.318Z,97036.69
2022-08-14T00:12:56.791Z,97027.97
2022-08-14T00:15:29.701Z,97028.69
2022-08-14T00:17:58.915Z,97020.38
2022-08-14T00:20:41.294Z,97021.31
2022-08-14T00:23:17.367Z,97019.59
2022-08-14T00:25:53.706Z,97023.13
2022-08-14T00:28:35.532Z,97015.69
2022-08-14T00:31:05.075Z,97015.28
2022-08-14T00:33:51.139Z,97007.41
2022-08-14T00:36:35.326Z,97013.06
2022-08-14T00:39:18.022Z,97003.50
2022-08-14T00:41:47.962Z,97002.03
2022-08-14T00:44:27.539Z,97000.03
2022-08-14T00:47:02.487Z,96996.78
2022-08-14T00:49:38.216Z,96997.41
2022-08-14T00:52:13.848Z,96989.78
2022-08-14T00:54:43.211Z,96997.66
2022-08-14T00:57:12.037Z,96997.59
2022-08-14T00:59:41.480Z,96991.38
2022-08-14T01:02:10.661Z,96992.84
2022-08-14T01:04:53.432Z,96992.91
2022-08-14T01:07:24.802Z,96986.69
2022-08-14T01:09:58.735Z,96993.09
2022-08-14T01:12:29.775Z,96986.75
2022-08-14T01:14:59.013Z,96989.84
2022-08-14T01:17:50.818Z,96991.47
2022-08-14T01:20:39.322Z,96991.16
2022-08-14T01:23:16.072Z,97002.81
2022-08-14T01:25:48.615Z,96990.88
2022-08-14T01:28:46.857Z,96997.97
2022-08-14T01:31:08.615Z,96996.06
2022-08-14T01:35:16.619Z,96989.03
2022-08-14T01:36:37.284Z,96997.91
2022-08-14T01:39:12.791Z,96997.13
2022-08-14T01:41:43.252Z,96994.78
2022-08-14T01:44:32.854Z,96993.03
2022-08-14T01:47:11.793Z,96992.00
2022-08-14T01:49:59.062Z,96987.16
2022-08-14T01:52:34.505Z,96989.78
2022-08-14T01:55:18.770Z,96988.63
2022-08-14T01:58:00.872Z,96983.84
2022-08-14T02:00:38.979Z,96987.16
2022-08-14T02:03:08.850Z,96987.84
2022-08-14T02:05:38.942Z,96981.44
2022-08-14T02:08:08.921Z,96989.53
2022-08-14T02:10:47.129Z,96985.84
2022-08-14T02:13:19.125Z,96990.47
2022-08-14T02:15:48.590Z,96983.16
2022-08-14T02:18:18.185Z,96996.41
2022-08-14T02:20:49.065Z,96993.16
2022-08-14T02:23:23.848Z,96991.00
2022-08-14T02:26:24.330Z,96985.56
2022-08-14T02:28:59.593Z,96991.94
2022-08-14T02:31:42.570Z,96991.84
2022-08-14T02:34:22.593Z,96991.38
2022-08-14T02:37:05.064Z,96982.59
2022-08-14T02:39:37.225Z,96990.19
2022-08-14T02:42:13.018Z,96979.09
2022-08-14T02:44:48.802Z,96982.84
2022-08-14T02:47:21.084Z,96984.81
2022-08-14T02:49:54.959Z,96976.13
2022-08-14T02:52:56.385Z,96971.41
2022-08-14T02:55:19.743Z,96976.16
2022-08-14T02:57:58.147Z,96972.75
2022-08-14T03:00:39.773Z,96969.25
2022-08-14T03:03:10.121Z,96971.63
2022-08-14T03:05:41.094Z,96975.97
2022-08-14T03:08:15.417Z,96970.94
2022-08-14T03:10:48.693Z,96976.19
2022-08-14T03:13:21.132Z,96976.19
2022-08-14T03:15:56.324Z,96970.78
2022-08-14T03:18:32.093Z,96975.81
2022-08-14T03:21:02.797Z,96974.63
2022-08-14T03:23:37.883Z,96976.88
2022-08-14T03:26:13.049Z,96981.69
2022-08-14T03:28:51.233Z,96980.84
2022-08-14T03:31:26.103Z,96984.03
2022-08-14T03:33:56.931Z,96976.38
2022-08-14T03:37:37.303Z,96976.97
2022-08-14T03:39:21.790Z,96975.84
2022-08-14T03:41:52.443Z,96973.50
2022-08-14T03:45:19.643Z,96971.38
2022-08-14T03:47:12.251Z,96976.03
2022-08-14T03:49:49.755Z,96969.41
2022-08-14T03:52:38.794Z,96967.00
2022-08-14T03:55:08.901Z,96966.84
2022-08-14T03:57:38.058Z,96962.88
2022-08-14T04:00:40.628Z,96959.34
2022-08-14T04:03:02.444Z,96969.31
2022-08-14T04:05:37.927Z,96961.09
2022-08-14T04:08:23.030Z,96970.66
2022-08-14T04:11:00.976Z,96966.41
2022-08-14T04:13:32.026Z,96967.47
2022-08-14T04:16:06.702Z,96961.53
2022-08-14T04:18:35.948Z,96959.56
2022-08-14T04:21:04.434Z,96964.50
2022-08-14T04:23:34.514Z,96969.22
2022-08-14T04:26:04.112Z,96964.00
2022-08-14T04:29:08.308Z,96967.16
2022-08-14T04:32:56.501Z,96970.75
2022-08-14T04:34:20.777Z,96967.19
2022-08-14T04:37:22.001Z,96967.41
2022-08-14T04:40:08.545Z,96965.81
2022-08-14T04:42:55.268Z,96965.41
2022-08-14T04:45:24.460Z,96966.00
2022-08-14T04:48:12.641Z,96963.16
2022-08-14T04:50:44.467Z,96962.16
2022-08-14T04:53:15.722Z,96966.47
2022-08-14T04:55:49.812Z,96966.56
2022-08-14T04:58:21.652Z,96967.03
2022-08-14T05:00:57.185Z,96968.72
2022-08-14T05:03:29.253Z,96971.81
2022-08-14T05:06:00.908Z,96958.28
2022-08-14T05:08:32.277Z,96961.97
2022-08-14T05:11:20.104Z,96966.69
2022-08-14T05:16:38.477Z,96966.69
2022-08-14T05:19:17.997Z,96956.72
2022-08-14T05:22:01.283Z,96964.75
2022-08-14T05:24:44.866Z,96954.91
2022-08-14T05:27:13.259Z,96955.56
2022-08-14T05:29:44.855Z,96956.78
2022-08-14T05:32:13.926Z,96956.06
2022-08-14T05:34:45.603Z,96960.97
2022-08-14T05:37:15.443Z,96947.06
2022-08-14T05:39:44.414Z,96940.63
2022-08-14T05:42:22.170Z,96934.53
2022-08-14T05:44:57.454Z,96937.56
2022-08-14T05:47:28.709Z,96939.53
2022-08-14T05:49:59.816Z,96940.47
2022-08-14T05:52:48.832Z,96939.53
2022-08-14T05:55:16.699Z,96944.03
2022-08-14T05:57:50.121Z,96947.66
2022-08-14T06:00:28.238Z,96942.06
2022-08-14T06:02:57.491Z,96939.84
2022-08-14T06:05:29.133Z,96934.50
2022-08-14T06:07:58.097Z,96934.13
2022-08-14T06:10:27.014Z,96933.19
2022-08-14T06:12:58.122Z,96934.31
2022-08-14T06:15:30.469Z,96934.09
2022-08-14T06:18:00.199Z,96924.91
2022-08-14T06:20:31.087Z,96926.13
2022-08-14T06:22:59.823Z,96928.50
2022-08-14T06:25:28.766Z,96924.13
2022-08-14T06:28:00.935Z,96924.66
2022-08-14T06:30:45.665Z,96926.31
2022-08-14T06:33:15.946Z,96924.13
2022-08-14T06:35:49.896Z,96927.91
2022-08-14T06:38:20.671Z,96929.66
2022-08-14T06:40:53.318Z,96928.00
2022-08-14T06:43:24.946Z,96925.91
2022-08-14T06:45:57.131Z,96930.19
2022-08-14T06:48:26.547Z,96931.47
2022-08-14T06:50:57.929Z,96930.06
2022-08-14T06:53:28.072Z,96929.16
2022-08-14T06:56:00.822Z,96927.00
2022-08-14T06:58:32.515Z,96920.78
2022-08-14T07:01:25.005Z,96923.84
2022-08-14T07:04:22.944Z,96918.41
2022-08-14T07:06:59.143Z,96923.63
2022-08-14T07:09:40.596Z,96922.19
2022-08-14T07:12:55.083Z,96920.41
2022-08-14T07:15:06.425Z,96924.72
2022-08-14T07:17:36.430Z,96913.59
2022-08-14T07:20:07.395Z,96924.53
2022-08-14T07:22:56.517Z,96917.84
2022-08-14T07:25:32.655Z,96917.06
2022-08-14T07:28:01.817Z,96918.31
2022-08-14T07:30:34.207Z,96917.44
2022-08-14T07:33:03.777Z,96917.81
2022-08-14T07:35:42.832Z,96909.16
2022-08-14T07:38:20.455Z,96914.09
2022-08-14T07:40:53.053Z,96911.03
2022-08-14T07:43:22.997Z,96910.25
2022-08-14T07:45:53.871Z,96919.66
2022-08-14T07:48:24.848Z,96911.41
2022-08-14T07:50:55.306Z,96915.28
2022-08-14T07:53:36.589Z,96909.25
2022-08-14T07:56:08.935Z,96914.50
2022-08-14T07:58:51.843Z,96912.66
2022-08-14T08:01:20.918Z,96910.84
2022-08-14T08:03:57.310Z,96911.69
2022-08-14T08:06:28.124Z,96913.50
2022-08-14T08:09:02.893Z,96908.47
2022-08-14T08:11:34.990Z,96913.38
2022-08-14T08:14:10.783Z,96912.06
2022-08-14T08:16:47.489Z,96918.69
2022-08-14T08:19:19.845Z,96917.50
2022-08-14T08:21:48.161Z,96917.97
2022-08-14T08:24:18.555Z,96922.06
2022-08-14T08:26:50.466Z,96913.78
2022-08-14T08:29:28.973Z,96915.00
2022-08-14T08:32:01.910Z,96922.44
2022-08-14T08:34:46.116Z,96921.84
2022-08-14T08:37:15.599Z,96922.69
2022-08-14T08:40:02.829Z,96923.31
2022-08-14T08:42:38.210Z,96919.34
2022-08-14T08:45:11.814Z,96913.53
2022-08-14T08:47:41.672Z,96913.56
2022-08-14T08:50:23.072Z,96911.38
2022-08-14T08:52:53.032Z,96910.03
2022-08-14T08:55:30.653Z,96906.53
2022-08-14T08:58:00.802Z,96907.97
2022-08-14T09:00:34.002Z,96896.56
2022-08-14T09:03:06.188Z,96896.91
2022-08-14T09:05:36.613Z,96889.38
2022-08-14T09:08:31.946Z,96893.16
2022-08-14T09:11:18.958Z,96874.88
2022-08-14T09:13:50.913Z,96882.25
2022-08-14T09:16:23.605Z,96878.72
2022-08-14T09:18:53.856Z,96879.53
2022-08-14T09:21:24.114Z,96872.03
2022-08-14T09:24:30.183Z,96875.94
2022-08-14T09:26:48.858Z,96865.97
2022-08-14T09:29:20.054Z,96858.59
2022-08-14T09:31:57.626Z,96857.03
2022-08-14T09:34:47.420Z,96857.47
2022-08-14T09:37:36.569Z,96861.47
2022-08-14T09:40:10.138Z,96859.19
2022-08-14T09:42:59.329Z,96860.56
2022-08-14T09:45:40.258Z,96850.91
2022-08-14T09:48:30.196Z,96845.03
2022-08-14T09:54:17.883Z,96835.09
2022-08-14T09:56:31.775Z,96831.41
2022-08-14T09:59:15.361Z,96821.66
2022-08-14T10:01:46.243Z,96826.22
2022-08-14T10:04:34.573Z,96832.28
2022-08-14T10:07:05.324Z,96825.56
2022-08-14T10:09:35.140Z,96828.88
2022-08-14T10:12:04.806Z,96829.25
2022-08-14T10:14:37.093Z,96830.75
2022-08-14T10:17:08.459Z,96836.69
2022-08-14T10:19:37.304Z,96833.34
2022-08-14T10:23:22.114Z,96822.22
2022-08-14T10:24:55.737Z,96824.41
2022-08-14T10:27:26.738Z,96811.63
2022-08-14T10:30:00.004Z,96815.22
2022-08-14T10:32:40.380Z,96811.41
2022-08-14T10:35:17.684Z,96809.75
2022-08-14T10:37:52.096Z,96806.81
2022-08-14T10:40:44.035Z,96808.41
2022-08-14T10:43:23.052Z,96814.00
2022-08-14T10:46:21.862Z,96814.44
2022-08-14T10:48:58.294Z,96808.09
2022-08-14T10:51:30.026Z,96806.59
2022-08-14T10:54:01.973Z,96805.13
2022-08-14T10:56:51.895Z,96799.03
2022-08-14T10:59:22.354Z,96801.59
2022-08-14T11:01:52.051Z,96802.56
2022-08-14T11:04:30.841Z,96802.91
2022-08-14T11:06:59.791Z,96793.41
2022-08-14T11:09:31.511Z,96784.16
2022-08-14T11:12:36.043Z,96780.41
2022-08-14T11:14:59.558Z,96776.56
2022-08-14T11:17:32.924Z,96777.47
2022-08-14T11:20:03.499Z,96763.81
2022-08-14T11:22:56.541Z,96775.03
2022-08-14T11:25:23.819Z,96767.81
2022-08-14T11:27:54.993Z,96764.28
2022-08-14T11:30:50.848Z,96762.34
2022-08-14T11:33:17.595Z,96761.72
2022-08-14T11:35:49.822Z,96759.94
2022-08-14T11:38:21.638Z,96764.28
2022-08-14T11:40:50.106Z,96758.03
2022-08-14T11:43:22.602Z,96754.75
2022-08-14T11:45:57.778Z,96754.56
2022-08-14T11:49:03.575Z,96762.72
2022-08-14T11:51:24.096Z,96762.72
2022-08-14T11:53:58.133Z,96764.00
2022-08-14T11:56:29.728Z,96750.88
2022-08-14T11:58:59.022Z,96746.09
2022-08-14T12:01:28.960Z,96748.41
2022-08-14T12:04:32.554Z,96760.22
2022-08-14T12:06:59.015Z,96757.38
2022-08-14T12:09:32.206Z,96752.13
2022-08-14T12:12:01.083Z,96751.03
2022-08-14T12:14:35.486Z,96741.66
2022-08-14T12:17:12.868Z,96748.75
2022-08-14T12:19:50.745Z,96744.88
2022-08-14T12:22:29.765Z,96737.88
2022-08-14T12:24:58.838Z,96725.34
2022-08-14T12:27:41.740Z,96735.91
2022-08-14T12:30:21.085Z,96726.34
2022-08-14T12:32:49.881Z,96723.31
2022-08-14T12:35:20.528Z,96723.56
2022-08-14T12:37:50.752Z,96721.78
2022-08-14T12:40:23.065Z,96724.28
2022-08-14T12:42:56.495Z,96716.84
2022-08-14T12:45:33.278Z,96710.47
2022-08-14T12:48:21.526Z,96701.19
2022-08-14T12:50:53.457Z,96715.84
2022-08-14T12:53:22.422Z,96712.84
2022-08-14T12:56:18.071Z,96702.19
2022-08-14T12:58:51.918Z,96699.72
2022-08-14T13:01:23.402Z,96698.59
2022-08-14T13:03:52.748Z,96694.88
2022-08-14T13:06:24.577Z,96693.16
2022-08-14T13:09:00.341Z,96684.63
2022-08-14T13:11:41.054Z,96679.53
2022-08-14T13:14:10.174Z,96674.81
2022-08-14T13:16:50.571Z,96669.84
2022-08-14T13:19:20.041Z,96662.66
2022-08-14T13:21:58.992Z,96662.56
2022-08-14T13:24:35.310Z,96666.66
2022-08-14T13:27:05.107Z,96653.84
2022-08-14T13:29:38.374Z,96647.81
2022-08-14T13:32:10.166Z,96657.13
2022-08-14T13:34:40.750Z,96645.31
2022-08-14T13:37:10.871Z,96643.06
2022-08-14T13:39:56.732Z,96636.25
2022-08-14T13:42:30.740Z,96638.81
2022-08-14T13:45:01.366Z,96636.81
2022-08-14T13:47:33.253Z,96627.16
2022-08-14T13:50:04.675Z,96638.41
2022-08-14T13:52:52.176Z,96618.41
2022-08-14T13:55:23.759Z,96607.50
2022-08-14T13:58:04.429Z,96610.25
2022-08-14T14:00:35.777Z,96609.81
2022-08-14T14:03:07.415Z,96607.63
2022-08-14T14:05:52.268Z,96611.69
2022-08-14T14:08:46.382Z,96595.09
2022-08-14T14:11:15.646Z,96603.03
2022-08-14T14:13:46.538Z,96599.28
2022-08-14T14:16:22.060Z,96597.28
2022-08-14T14:19:08.670Z,96590.16
2022-08-14T14:21:40.587Z,96593.06
2022-08-14T14:24:14.767Z,96596.63
2022-08-14T14:26:46.458Z,96600.72
2022-08-14T14:29:15.213Z,96596.00
2022-08-14T14:31:49.336Z,96591.22
2022-08-14T14:34:29.048Z,96592.50
2022-08-14T14:37:04.937Z,96583.88
2022-08-14T14:40:50.369Z,96590.13
2022-08-14T14:42:31.692Z,96596.16
2022-08-14T14:45:05.917Z,96587.13
2022-08-14T14:47:35.236Z,96587.94
2022-08-14T14:50:05.164Z,96587.09
2022-08-14T14:52:36.954Z,96580.13
2022-08-14T14:55:08.153Z,96586.56
2022-08-14T14:57:36.955Z,96583.34
2022-08-14T15:00:12.891Z,96582.94
2022-08-14T15:02:43.160Z,96582.50
2022-08-14T15:05:14.144Z,96581.69
2022-08-14T15:07:42.733Z,96586.69
2022-08-14T15:10:27.498Z,96585.03
2022-08-14T15:13:04.272Z,96579.38
2022-08-14T15:15:37.022Z,96572.09
2022-08-14T15:18:35.903Z,96584.09
2022-08-14T15:20:58.245Z,96586.91
2022-08-14T15:23:43.507Z,96581.50
2022-08-14T15:26:23.874Z,96576.06
2022-08-14T15:29:03.052Z,96582.41
2022-08-14T15:31:36.279Z,96578.13
2022-08-14T15:34:43.729Z,96585.19
2022-08-14T15:37:03.976Z,96585.59
2022-08-14T15:39:34.115Z,96581.22
2022-08-14T15:42:14.307Z,96574.41
2022-08-14T15:44:57.375Z,96571.38
2022-08-14T15:47:29.340Z,96579.75
2022-08-14T15:49:59.441Z,96570.84
2022-08-14T15:52:33.734Z,96566.47
2022-08-14T15:55:05.843Z,96563.38
2022-08-14T15:57:36.820Z,96564.53
2022-08-14T16:00:43.340Z,96565.91
2022-08-14T16:03:15.587Z,96565.28
2022-08-14T16:05:46.162Z,96564.38
2022-08-14T16:08:29.681Z,96567.66
2022-08-14T16:10:59.674Z,96561.03
2022-08-14T16:13:39.551Z,96561.94
2022-08-14T16:16:51.082Z,96553.69
2022-08-14T16:19:10.155Z,96547.16
2022-08-14T16:22:02.720Z,96550.38
2022-08-14T16:24:33.424Z,96553.91
2022-08-14T16:27:05.293Z,96551.66
2022-08-14T16:29:38.013Z,96545.50
2022-08-14T16:32:32.957Z,96558.34
2022-08-14T16:34:57.465Z,96546.00
2022-08-14T16:37:30.511Z,96539.81
2022-08-14T16:40:03.391Z,96542.31
2022-08-14T16:42:38.655Z,96545.56
2022-08-14T16:45:27.187Z,96543.81
2022-08-14T16:47:56.220Z,96538.44
2022-08-14T16:50:43.050Z,96540.25
2022-08-14T16:53:17.717Z,96532.63
2022-08-14T16:55:51.070Z,96543.94
2022-08-14T16:58:26.545Z,96539.22
2022-08-14T17:01:22.826Z,96536.72
2022-08-14T17:03:59.755Z,96539.63
2022-08-14T17:06:43.035Z,96541.16
2022-08-14T17:09:43.467Z,96545.16
2022-08-14T17:12:28.461Z,96542.16
2022-08-14T17:15:03.396Z,96537.63
2022-08-14T17:17:57.680Z,96541.38
2022-08-14T17:20:39.780Z,96532.34
2022-08-14T17:23:21.299Z,96540.94
2022-08-14T17:25:58.480Z,96537.78
2022-08-14T17:28:50.226Z,96539.63
2022-08-14T17:31:15.714Z,96536.56
2022-08-14T17:33:52.351Z,96541.00
2022-08-14T17:36:23.055Z,96536.28
2022-08-14T17:39:02.790Z,96542.63
2022-08-14T17:41:37.980Z,96543.28
2022-08-14T17:44:33.907Z,96539.19
2022-08-14T17:47:10.772Z,96535.34
2022-08-14T17:49:52.061Z,96541.25
2022-08-14T17:52:34.414Z,96552.31
2022-08-14T17:55:06.636Z,96550.06
2022-08-14T17:57:40.847Z,96555.28
2022-08-14T18:00:13.207Z,96556.13
2022-08-14T18:02:50.730Z,96548.44
2022-08-14T18:06:08.661Z,96567.03
2022-08-14T18:08:32.889Z,96570.31
2022-08-14T18:11:03.353Z,96569.41
2022-08-14T18:13:51.033Z,96586.00
2022-08-14T18:16:22.307Z,96586.72
2022-08-14T18:18:52.247Z,96586.84
2022-08-14T18:21:42.570Z,96593.19
2022-08-14T18:24:28.137Z,96595.69
2022-08-14T18:27:02.187Z,96600.69
2022-08-14T18:29:32.220Z,96596.53
2022-08-14T18:32:00.761Z,96588.13
2022-08-14T18:34:37.615Z,96595.25
2022-08-14T18:37:21.458Z,96597.78
2022-08-14T18:39:51.728Z,96594.31
2022-08-14T18:42:47.494Z,96602.16
2022-08-14T18:45:18.601Z,96604.50
2022-08-14T18:48:14.754Z,96612.09
2022-08-14T18:50:52.652Z,96611.63
2022-08-14T18:53:24.526Z,96613.47
2022-08-14T18:55:59.945Z,96608.41
2022-08-14T18:58:34.080Z,96609.44
2022-08-14T19:01:04.463Z,96617.72
2022-08-14T19:03:49.435Z,96621.16
2022-08-14T19:06:18.536Z,96619.59
2022-08-14T19:08:50.376Z,96621.44
2022-08-14T19:11:51.671Z,96622.47
2022-08-14T19:14:44.987Z,96626.16
2022-08-14T19:17:41.750Z,96615.13
2022-08-14T19:20:11.730Z,96617.28
2022-08-14T19:22:40.782Z,96615.50
2022-08-14T19:25:13.930Z,96622.34
2022-08-14T19:27:45.990Z,96623.16
2022-08-14T19:30:23.417Z,96633.06
2022-08-14T19:32:55.896Z,96624.44
2022-08-14T19:35:50.005Z,96630.41
2022-08-14T19:38:48.025Z,96629.63
2022-08-14T19:41:20.207Z,96630.03
2022-08-14T19:43:56.902Z,96633.50
2022-08-14T19:46:37.600Z,96626.16
2022-08-14T19:49:08.744Z,96625.66
2022-08-14T19:51:44.834Z,96626.16
2022-08-14T19:54:15.341Z,96627.53
2022-08-14T19:56:46.613Z,96633.22
2022-08-14T19:59:18.995Z,96629.31
2022-08-14T20:01:52.301Z,96631.13
2022-08-14T20:04:45.995Z,96630.38
2022-08-14T20:07:59.619Z,96630.63
2022-08-14T20:11:05.637Z,96631.69
2022-08-14T20:13:23.656Z,96629.34
2022-08-14T20:15:57.881Z,96627.16
2022-08-14T20:18:49.586Z,96629.69
2022-08-14T20:21:17.155Z,96634.25
2022-08-14T20:23:48.050Z,96629.38
2022-08-14T20:26:31.641Z,96642.56
2022-08-14T20:29:05.146Z,96638.94
2022-08-14T20:31:38.530Z,96631.03
2022-08-14T20:34:18.957Z,96631.31
2022-08-14T20:37:02.970Z,96627.97
2022-08-14T20:39:34.203Z,96624.34
2022-08-14T20:42:29.287Z,96621.25
2022-08-14T20:45:23.786Z,96620.97
2022-08-14T20:47:58.519Z,96613.28
2022-08-14T20:50:31.903Z,96612.19
2022-08-14T20:53:05.985Z,96607.09
2022-08-14T20:55:41.531Z,96611.63
2022-08-14T20:58:43.488Z,96607.69
2022-08-14T21:01:33.814Z,96602.94
2022-08-14T21:04:12.022Z,96598.38
2022-08-14T21:07:23.209Z,96605.50
2022-08-14T21:10:04.566Z,96610.44
2022-08-14T21:12:35.131Z,96614.72
2022-08-14T21:15:10.006Z,96609.91
2022-08-14T21:17:43.031Z,96608.31
2022-08-14T21:20:25.784Z,96612.38
2022-08-14T21:22:58.197Z,96605.00
2022-08-14T21:25:31.857Z,96613.84
2022-08-14T21:28:01.833Z,96613.97
2022-08-14T21:30:51.566Z,96622.38
2022-08-14T21:33:22.963Z,96616.59
2022-08-14T21:35:54.905Z,96623.06
2022-08-14T21:38:33.871Z,96614.94
2022-08-14T21:41:41.907Z,96609.34
2022-08-14T21:44:17.696Z,96615.19
2022-08-14T21:46:50.357Z,96615.59
2022-08-14T21:49:22.601Z,96610.50
2022-08-14T21:52:00.025Z,96610.91
2022-08-14T21:54:49.325Z,96605.59
2022-08-14T21:57:55.648Z,96603.28
2022-08-14T22:00:30.132Z,96614.38
2022-08-14T22:02:59.083Z,96619.13
2022-08-14T22:05:29.728Z,96624.22
2022-08-14T22:07:59.142Z,96614.88
2022-08-14T22:10:32.518Z,96625.94
2022-08-14T22:13:01.818Z,96621.19
2022-08-14T22:15:31.399Z,96618.63
2022-08-14T22:18:02.118Z,96626.63
2022-08-14T22:20:33.314Z,96617.25
2022-08-14T22:23:04.687Z,96614.94
2022-08-14T22:25:41.155Z,96612.53
2022-08-14T22:28:14.909Z,96610.84
2022-08-14T22:30:45.141Z,96612.16
2022-08-14T22:33:15.178Z,96607.84
2022-08-14T22:35:46.599Z,96605.84
2022-08-14T22:38:35.741Z,96601.41
2022-08-14T22:41:25.294Z,96606.78
2022-08-14T22:43:59.234Z,96606.19
2022-08-14T22:46:27.977Z,96606.56
2022-08-14T22:48:57.554Z,96600.28
2022-08-14T22:51:28.296Z,96604.47
2022-08-14T22:53:58.276Z,96606.34
2022-08-14T22:56:30.459Z,96602.34
2022-08-14T22:59:00.262Z,96603.53
2022-08-14T23:01:55.206Z,96609.66
2022-08-14T23:04:35.229Z,96605.38
2022-08-14T23:07:22.338Z,96601.56
2022-08-14T23:09:57.717Z,96598.63
2022-08-14T23:12:54.699Z,96593.47
2022-08-14T23:15:30.185Z,96595.84
2022-08-14T23:17:59.289Z,96594.53
2022-08-14T23:20:29.322Z,96591.91
2022-08-14T23:22:59.724Z,96587.13
2022-08-14T23:25:56.973Z,96589.72
2022-08-14T23:28:34.820Z,96589.59
2022-08-14T23:31:12.560Z,96580.81
2022-08-14T23:33:51.910Z,96576.38
2022-08-14T23:36:31.983Z,96586.34
2022-08-14T23:39:12.380Z,96586.59
2022-08-14T23:41:52.758Z,96595.59
2022-08-14T23:44:24.124Z,96590.69
2022-08-14T23:46:56.851Z,96584.69
2022-08-14T23:49:49.681Z,96583.59
2022-08-14T23:52:50.248Z,96575.25
2022-08-14T23:55:11.214Z,96575.78
2022-08-14T23:57:43.896Z,96571.72
